sensor_id;sensor_type;location;lat;lon;timestamp;pressure;altitude;pressure_sealevel;temperature;humidity
42105;BME280;70664;51.472;5.712;2023-12-20T00:15:08;101448.31;;;17.18;65.19
42105;BME280;70664;51.472;5.712;2023-12-20T00:55:28;101442.53;;;16.99;64.70
42105;BME280;70664;51.472;5.712;2023-12-20T01:02:25;101440.81;;;16.98;64.51
42105;BME280;70664;51.472;5.712;2023-12-20T01:09:13;101432.16;;;16.94;64.39
42105;BME280;70664;51.472;5.712;2023-12-20T01:12:35;101444.31;;;16.92;64.79
42105;BME280;70664;51.472;5.712;2023-12-20T01:15:35;101436.56;;;16.90;64.40
42105;BME280;70664;51.472;5.712;2023-12-20T01:18:49;101443.47;;;16.90;64.37
42105;BME280;70664;51.472;5.712;2023-12-20T01:21:50;101441.75;;;16.89;64.48
42105;BME280;70664;51.472;5.712;2023-12-20T01:31:58;101452.22;;;16.86;64.32
42105;BME280;70664;51.472;5.712;2023-12-20T01:35:23;101453.97;;;16.84;64.38
42105;BME280;70664;51.472;5.712;2023-12-20T01:38:01;101450.53;;;16.82;64.49
42105;BME280;70664;51.472;5.712;2023-12-20T01:51:34;101457.47;;;16.80;64.31
42105;BME280;70664;51.472;5.712;2023-12-20T01:54:25;101451.44;;;16.77;64.17
42105;BME280;70664;51.472;5.712;2023-12-20T01:57:29;101454.91;;;16.76;64.17
42105;BME280;70664;51.472;5.712;2023-12-20T02:00:39;101462.69;;;16.76;64.27
42105;BME280;70664;51.472;5.712;2023-12-20T02:06:52;101457.53;;;16.73;64.10
42105;BME280;70664;51.472;5.712;2023-12-20T02:09:49;101458.38;;;16.74;64.40
42105;BME280;70664;51.472;5.712;2023-12-20T02:17:01;101455.00;;;16.69;64.00
42105;BME280;70664;51.472;5.712;2023-12-20T02:19:52;101461.06;;;16.69;64.16
42105;BME280;70664;51.472;5.712;2023-12-20T02:22:57;101463.69;;;16.68;64.25
42105;BME280;70664;51.472;5.712;2023-12-20T02:26:08;101465.41;;;16.67;64.20
42105;BME280;70664;51.472;5.712;2023-12-20T02:32:41;101452.44;;;16.64;64.35
42105;BME280;70664;51.472;5.712;2023-12-20T02:35:41;101442.94;;;16.65;63.79
42105;BME280;70664;51.472;5.712;2023-12-20T02:38:24;101446.41;;;16.62;63.90
42105;BME280;70664;51.472;5.712;2023-12-20T02:41:05;101439.50;;;16.62;64.14
42105;BME280;70664;51.472;5.712;2023-12-20T02:46:38;101447.28;;;16.61;63.99
42105;BME280;70664;51.472;5.712;2023-12-20T02:49:19;101444.75;;;16.58;64.21
42105;BME280;70664;51.472;5.712;2023-12-20T02:52:07;101439.56;;;16.58;63.84
42105;BME280;70664;51.472;5.712;2023-12-20T02:59:05;101442.16;;;16.56;64.18
42105;BME280;70664;51.472;5.712;2023-12-20T03:05:30;101446.53;;;16.54;63.74
42105;BME280;70664;51.472;5.712;2023-12-20T03:09:00;101448.28;;;16.54;63.97
42105;BME280;70664;51.472;5.712;2023-12-20T03:16:10;101438.75;;;16.51;63.64
42105;BME280;70664;51.472;5.712;2023-12-20T03:18:45;101440.53;;;16.51;63.82
42105;BME280;70664;51.472;5.712;2023-12-20T03:24:58;101428.41;;;16.48;63.63
42105;BME280;70664;51.472;5.712;2023-12-20T03:30:34;101436.19;;;16.48;63.66
42105;BME280;70664;51.472;5.712;2023-12-20T03:33:47;101426.69;;;16.47;63.65
42105;BME280;70664;51.472;5.712;2023-12-20T03:36:27;101427.56;;;16.46;64.01
42105;BME280;70664;51.472;5.712;2023-12-20T03:39:25;101427.59;;;16.44;63.55
42105;BME280;70664;51.472;5.712;2023-12-20T03:42:17;101427.63;;;16.41;64.01
42105;BME280;70664;51.472;5.712;2023-12-20T03:45:09;101427.63;;;16.41;64.05
42105;BME280;70664;51.472;5.712;2023-12-20T03:54:46;101411.25;;;16.38;63.66
42105;BME280;70664;51.472;5.712;2023-12-20T03:57:19;101413.84;;;16.38;63.80
42105;BME280;70664;51.472;5.712;2023-12-20T04:03:58;101434.66;;;16.35;63.99
42105;BME280;70664;51.472;5.712;2023-12-20T04:07:21;101432.91;;;16.33;64.04
42105;BME280;70664;51.472;5.712;2023-12-20T04:10:56;101425.13;;;16.33;63.97
42105;BME280;70664;51.472;5.712;2023-12-20T04:16:53;101435.53;;;16.32;63.64
42105;BME280;70664;51.472;5.712;2023-12-20T04:23:00;101426.06;;;16.28;63.77
42105;BME280;70664;51.472;5.712;2023-12-20T04:25:49;101430.38;;;16.29;63.68
42105;BME280;70664;51.472;5.712;2023-12-20T04:28:48;101433.84;;;16.26;64.25
42105;BME280;70664;51.472;5.712;2023-12-20T04:31:20;101427.81;;;16.24;63.66
42105;BME280;70664;51.472;5.712;2023-12-20T04:37:15;101433.88;;;16.25;63.88
42105;BME280;70664;51.472;5.712;2023-12-20T04:40:18;101426.97;;;16.22;63.83
42105;BME280;70664;51.472;5.712;2023-12-20T04:43:21;101421.81;;;16.19;63.78
42105;BME280;70664;51.472;5.712;2023-12-20T04:53:04;101421.88;;;16.16;64.25
42105;BME280;70664;51.472;5.712;2023-12-20T04:56:41;101421.88;;;16.14;63.82
42105;BME280;70664;51.472;5.712;2023-12-20T05:00:19;101425.34;;;16.13;63.95
42105;BME280;70664;51.472;5.712;2023-12-20T05:03:36;101435.75;;;16.12;63.89
42105;BME280;70664;51.472;5.712;2023-12-20T05:13:50;101421.06;;;16.11;63.93
42105;BME280;70664;51.472;5.712;2023-12-20T05:16:45;101425.38;;;16.10;63.69
42105;BME280;70664;51.472;5.712;2023-12-20T05:43:31;101405.59;;;16.01;64.00
42105;BME280;70664;51.472;5.712;2023-12-20T05:46:15;101410.78;;;16.01;64.05
42105;BME280;70664;51.472;5.712;2023-12-20T05:49:47;101405.63;;;16.00;64.07
42105;BME280;70664;51.472;5.712;2023-12-20T05:52:59;101408.22;;;15.98;64.23
42105;BME280;70664;51.472;5.712;2023-12-20T06:20:15;101434.19;;;15.92;63.85
42105;BME280;70664;51.472;5.712;2023-12-20T06:50:30;101429.94;;;15.85;63.85
42105;BME280;70664;51.472;5.712;2023-12-20T06:54:29;101431.66;;;15.84;64.04
42105;BME280;70664;51.472;5.712;2023-12-20T07:12:56;101421.31;;;15.81;63.56
42105;BME280;70664;51.472;5.712;2023-12-20T10:00:08;101433.59;;;15.57;64.31
42105;BME280;70664;51.472;5.712;2023-12-20T10:25:47;101408.59;;;15.50;64.37
42105;BME280;70664;51.472;5.712;2023-12-20T10:37:18;101422.34;;;15.62;64.56
42105;BME280;70664;51.472;5.712;2023-12-20T10:59:07;101381.78;;;15.57;63.23
42105;BME280;70664;51.472;5.712;2023-12-20T11:49:12;101341.06;;;15.67;63.50
42105;BME280;70664;51.472;5.712;2023-12-20T12:03:18;101337.59;;;15.68;63.50
42105;BME280;70664;51.472;5.712;2023-12-20T12:06:10;101343.66;;;15.69;62.94
42105;BME280;70664;51.472;5.712;2023-12-20T12:08:41;101338.47;;;15.69;63.12
42105;BME280;70664;51.472;5.712;2023-12-20T12:23:10;101304.78;;;15.69;62.86
42105;BME280;70664;51.472;5.712;2023-12-20T12:29:36;101311.69;;;15.68;63.31
42105;BME280;70664;51.472;5.712;2023-12-20T12:32:09;101322.91;;;15.67;63.12
42105;BME280;70664;51.472;5.712;2023-12-20T12:34:56;101316.88;;;15.68;63.33
42105;BME280;70664;51.472;5.712;2023-12-20T12:37:43;101322.06;;;15.67;63.24
42105;BME280;70664;51.472;5.712;2023-12-20T12:40:15;101303.91;;;15.68;63.35
42105;BME280;70664;51.472;5.712;2023-12-20T12:42:44;101308.25;;;15.68;63.45
42105;BME280;70664;51.472;5.712;2023-12-20T12:45:21;101303.91;;;15.68;63.33
42105;BME280;70664;51.472;5.712;2023-12-20T12:48:19;101295.28;;;15.68;63.34
42105;BME280;70664;51.472;5.712;2023-12-20T12:54:09;101273.66;;;15.69;63.38
42105;BME280;70664;51.472;5.712;2023-12-20T12:56:39;101277.97;;;15.70;63.24
42105;BME280;70664;51.472;5.712;2023-12-20T12:59:20;101268.47;;;15.72;63.02
42105;BME280;70664;51.472;5.712;2023-12-20T13:01:57;101262.38;;;15.75;63.36
42105;BME280;70664;51.472;5.712;2023-12-20T13:05:11;101262.31;;;15.79;63.53
42105;BME280;70664;51.472;5.712;2023-12-20T13:07:54;101264.59;;;16.07;62.51
42105;BME280;70664;51.472;5.712;2023-12-20T13:10:39;101260.06;;;16.23;61.93
42105;BME280;70664;51.472;5.712;2023-12-20T13:13:17;101260.03;;;16.28;62.34
42105;BME280;70664;51.472;5.712;2023-12-20T13:16:01;101256.47;;;16.33;61.94
42105;BME280;70664;51.472;5.712;2023-12-20T13:23:01;101233.66;;;16.54;61.53
42105;BME280;70664;51.472;5.712;2023-12-20T13:25:35;101234.59;;;16.52;62.00
42105;BME280;70664;51.472;5.712;2023-12-20T13:31:20;101217.03;;;16.66;61.60
42105;BME280;70664;51.472;5.712;2023-12-20T13:33:46;101221.41;;;16.64;61.45
42105;BME280;70664;51.472;5.712;2023-12-20T13:36:12;101214.31;;;16.74;61.33
42105;BME280;70664;51.472;5.712;2023-12-20T13:38:49;101222.00;;;16.80;61.11
42105;BME280;70664;51.472;5.712;2023-12-20T13:45:07;101197.59;;;16.90;61.46
42105;BME280;70664;51.472;5.712;2023-12-20T13:47:42;101193.28;;;16.89;61.54
42105;BME280;70664;51.472;5.712;2023-12-20T13:50:08;101200.22;;;16.89;61.29
42105;BME280;70664;51.472;5.712;2023-12-20T13:52:35;101209.81;;;16.85;61.47
42105;BME280;70664;51.472;5.712;2023-12-20T13:55:08;101214.91;;;16.91;61.76
42105;BME280;70664;51.472;5.712;2023-12-20T14:01:20;101181.25;;;16.85;61.68
42105;BME280;70664;51.472;5.712;2023-12-20T14:06:33;101180.31;;;16.89;61.58
42105;BME280;70664;51.472;5.712;2023-12-20T14:08:59;101191.59;;;16.88;61.82
42105;BME280;70664;51.472;5.712;2023-12-20T14:11:46;101196.78;;;16.87;61.64
42105;BME280;70664;51.472;5.712;2023-12-20T14:14:12;101193.50;;;16.77;62.19
42105;BME280;70664;51.472;5.712;2023-12-20T14:16:38;101191.72;;;16.81;62.03
42105;BME280;70664;51.472;5.712;2023-12-20T14:19:13;101173.50;;;16.84;61.76
42105;BME280;70664;51.472;5.712;2023-12-20T14:25:46;101191.59;;;16.87;61.60
42105;BME280;70664;51.472;5.712;2023-12-20T14:28:16;101183.88;;;16.82;61.99
42105;BME280;70664;51.472;5.712;2023-12-20T14:30:45;101181.34;;;16.81;62.16
42105;BME280;70664;51.472;5.712;2023-12-20T14:33:11;101177.81;;;16.85;61.71
42105;BME280;70664;51.472;5.712;2023-12-20T14:36:10;101180.41;;;16.83;62.10
42105;BME280;70664;51.472;5.712;2023-12-20T14:38:35;101189.91;;;16.86;61.57
42105;BME280;70664;51.472;5.712;2023-12-20T14:41:01;101194.28;;;16.84;61.80
42105;BME280;70664;51.472;5.712;2023-12-20T14:43:29;101179.34;;;16.95;61.69
42105;BME280;70664;51.472;5.712;2023-12-20T14:46:22;101176.63;;;17.03;61.10
42105;BME280;70664;51.472;5.712;2023-12-20T14:48:58;101172.16;;;17.13;60.83
42105;BME280;70664;51.472;5.712;2023-12-20T14:51:30;101177.25;;;17.17;61.15
42105;BME280;70664;51.472;5.712;2023-12-20T14:54:37;101196.41;;;17.12;61.61
42105;BME280;70664;51.472;5.712;2023-12-20T15:05:06;101203.56;;;16.97;61.12
42105;BME280;70664;51.472;5.712;2023-12-20T15:08:01;101211.38;;;16.97;61.30
42105;BME280;70664;51.472;5.712;2023-12-20T15:10:27;101210.50;;;16.95;61.07
42105;BME280;70664;51.472;5.712;2023-12-20T15:12:56;101214.03;;;16.92;61.10
42105;BME280;70664;51.472;5.712;2023-12-20T15:15:33;101199.28;;;16.93;61.58
42105;BME280;70664;51.472;5.712;2023-12-20T15:18:11;101192.38;;;16.93;61.26
42105;BME280;70664;51.472;5.712;2023-12-20T15:21:32;101199.28;;;16.93;61.22
42105;BME280;70664;51.472;5.712;2023-12-20T15:24:54;101172.47;;;16.91;61.47
42105;BME280;70664;51.472;5.712;2023-12-20T15:27:29;101184.59;;;16.92;61.13
42105;BME280;70664;51.472;5.712;2023-12-20T15:29:55;101175.94;;;16.91;61.13
42105;BME280;70664;51.472;5.712;2023-12-20T15:32:21;101169.88;;;16.92;61.10
42105;BME280;70664;51.472;5.712;2023-12-20T15:34:48;101176.78;;;16.93;61.15
42105;BME280;70664;51.472;5.712;2023-12-20T15:37:14;101174.16;;;16.95;61.31
42105;BME280;70664;51.472;5.712;2023-12-20T15:39:44;101176.78;;;16.93;61.53
42105;BME280;70664;51.472;5.712;2023-12-20T15:42:09;101175.88;;;16.98;61.25
42105;BME280;70664;51.472;5.712;2023-12-20T15:44:47;101168.09;;;16.95;61.76
42105;BME280;70664;51.472;5.712;2023-12-20T15:47:17;101176.75;;;16.95;61.48
42105;BME280;70664;51.472;5.712;2023-12-20T15:49:43;101180.22;;;16.94;61.83
42105;BME280;70664;51.472;5.712;2023-12-20T15:52:19;101168.94;;;16.95;61.68
42105;BME280;70664;51.472;5.712;2023-12-20T15:54:45;101180.19;;;16.97;62.01
42105;BME280;70664;51.472;5.712;2023-12-20T15:57:12;101180.25;;;16.96;62.08
42105;BME280;70664;51.472;5.712;2023-12-20T15:59:38;101186.28;;;16.95;62.04
42105;BME280;70664;51.472;5.712;2023-12-20T16:02:04;101180.25;;;16.96;62.17
42105;BME280;70664;51.472;5.712;2023-12-20T16:04:30;101178.50;;;16.95;62.27
42105;BME280;70664;51.472;5.712;2023-12-20T16:06:59;101165.50;;;16.95;62.16
42105;BME280;70664;51.472;5.712;2023-12-20T16:09:25;101162.03;;;16.94;61.96
42105;BME280;70664;51.472;5.712;2023-12-20T16:11:54;101168.09;;;16.95;62.34
42105;BME280;70664;51.472;5.712;2023-12-20T16:14:20;101164.66;;;16.96;62.09
42105;BME280;70664;51.472;5.712;2023-12-20T16:16:47;101150.78;;;16.95;62.12
42105;BME280;70664;51.472;5.712;2023-12-20T16:19:25;101153.38;;;16.97;62.04
42105;BME280;70664;51.472;5.712;2023-12-20T16:22:39;101142.97;;;16.98;62.51
42105;BME280;70664;51.472;5.712;2023-12-20T16:24:55;101138.63;;;16.97;62.17
42105;BME280;70664;51.472;5.712;2023-12-20T16:27:21;101134.22;;;17.01;62.29
42105;BME280;70664;51.472;5.712;2023-12-20T16:29:47;101126.50;;;16.99;62.85
42105;BME280;70664;51.472;5.712;2023-12-20T16:32:13;101120.41;;;17.00;63.67
42105;BME280;70664;51.472;5.712;2023-12-20T16:34:39;101112.66;;;16.99;63.58
42105;BME280;70664;51.472;5.712;2023-12-20T16:37:07;101113.50;;;16.99;63.36
42105;BME280;70664;51.472;5.712;2023-12-20T16:39:42;101118.69;;;16.99;63.17
42105;BME280;70664;51.472;5.712;2023-12-20T16:46:30;101129.97;;;17.00;63.28
42105;BME280;70664;51.472;5.712;2023-12-20T16:49:27;101120.41;;;17.00;63.42
42105;BME280;70664;51.472;5.712;2023-12-20T16:55:44;101098.75;;;17.01;63.91
42105;BME280;70664;51.472;5.712;2023-12-20T16:58:16;101097.84;;;17.02;64.01
42105;BME280;70664;51.472;5.712;2023-12-20T17:00:47;101081.34;;;17.05;63.98
42105;BME280;70664;51.472;5.712;2023-12-20T17:03:18;101079.63;;;17.04;64.32
42105;BME280;70664;51.472;5.712;2023-12-20T17:05:45;101074.44;;;17.05;64.09
42105;BME280;70664;51.472;5.712;2023-12-20T17:08:11;101078.72;;;17.06;64.57
42105;BME280;70664;51.472;5.712;2023-12-20T17:10:37;101072.72;;;17.04;65.27
42105;BME280;70664;51.472;5.712;2023-12-20T17:13:44;101064.03;;;17.05;65.97
42105;BME280;70664;51.472;5.712;2023-12-20T17:20:29;101059.66;;;17.07;67.54
42105;BME280;70664;51.472;5.712;2023-12-20T17:23:25;101063.09;;;17.08;68.89
42105;BME280;70664;51.472;5.712;2023-12-20T17:26:20;101044.06;;;17.07;68.88
42105;BME280;70664;51.472;5.712;2023-12-20T17:28:55;101038.78;;;17.12;68.70
42105;BME280;70664;51.472;5.712;2023-12-20T17:34:55;101017.94;;;17.15;69.83
42105;BME280;70664;51.472;5.712;2023-12-20T17:37:21;101034.41;;;17.14;71.00
42105;BME280;70664;51.472;5.712;2023-12-20T17:42:53;101026.66;;;17.13;70.57
42105;BME280;70664;51.472;5.712;2023-12-20T17:45:21;101022.31;;;17.13;70.41
42105;BME280;70664;51.472;5.712;2023-12-20T17:51:39;101009.19;;;17.18;69.35
42105;BME280;70664;51.472;5.712;2023-12-20T17:54:11;101004.06;;;17.15;69.06
42105;BME280;70664;51.472;5.712;2023-12-20T17:57:45;100994.53;;;17.15;68.54
42105;BME280;70664;51.472;5.712;2023-12-20T18:00:34;100989.31;;;17.17;68.04
42105;BME280;70664;51.472;5.712;2023-12-20T18:03:01;100998.78;;;17.19;68.28
42105;BME280;70664;51.472;5.712;2023-12-20T18:06:51;101004.06;;;17.16;67.96
42105;BME280;70664;51.472;5.712;2023-12-20T18:09:04;100991.00;;;17.18;67.78
42105;BME280;70664;51.472;5.712;2023-12-20T18:11:30;100991.84;;;17.20;67.36
42105;BME280;70664;51.472;5.712;2023-12-20T18:14:02;100990.13;;;17.20;66.80
42105;BME280;70664;51.472;5.712;2023-12-20T18:16:36;100978.03;;;17.18;67.10
42105;BME280;70664;51.472;5.712;2023-12-20T18:19:06;100975.47;;;17.16;66.86
42105;BME280;70664;51.472;5.712;2023-12-20T18:21:32;100971.94;;;17.19;66.54
42105;BME280;70664;51.472;5.712;2023-12-20T18:24:13;100980.63;;;17.18;67.08
42105;BME280;70664;51.472;5.712;2023-12-20T18:26:42;100971.94;;;17.20;67.25
42105;BME280;70664;51.472;5.712;2023-12-20T18:29:34;100971.94;;;17.20;68.28
42105;BME280;70664;51.472;5.712;2023-12-20T18:42:55;100952.88;;;17.20;67.23
42105;BME280;70664;51.472;5.712;2023-12-20T18:53:35;100940.75;;;17.19;66.37
42105;BME280;70664;51.472;5.712;2023-12-20T18:57:29;100946.69;;;17.26;66.50
42105;BME280;70664;51.472;5.712;2023-12-20T19:00:51;100934.53;;;17.28;66.07
42105;BME280;70664;51.472;5.712;2023-12-20T19:11:32;100931.88;;;17.29;65.79
42105;BME280;70664;51.472;5.712;2023-12-20T19:23:36;100917.88;;;17.35;66.30
42105;BME280;70664;51.472;5.712;2023-12-20T19:26:03;100914.38;;;17.36;65.79
42105;BME280;70664;51.472;5.712;2023-12-20T19:28:29;100913.47;;;17.39;65.97
42105;BME280;70664;51.472;5.712;2023-12-20T19:34:12;100898.78;;;17.36;65.73
42105;BME280;70664;51.472;5.712;2023-12-20T19:44:25;100860.63;;;17.38;65.74
42105;BME280;70664;51.472;5.712;2023-12-20T19:48:02;100867.59;;;17.37;65.23
42105;BME280;70664;51.472;5.712;2023-12-20T19:50:44;100865.81;;;17.38;65.53
42105;BME280;70664;51.472;5.712;2023-12-20T19:54:18;100865.00;;;17.37;65.23
42105;BME280;70664;51.472;5.712;2023-12-20T20:04:04;100845.84;;;17.40;65.26
42105;BME280;70664;51.472;5.712;2023-12-20T20:13:54;100829.50;;;17.36;64.98
42105;BME280;70664;51.472;5.712;2023-12-20T20:17:50;100832.94;;;17.37;65.14
42105;BME280;70664;51.472;5.712;2023-12-20T20:28:23;100812.13;;;17.39;64.69
42105;BME280;70664;51.472;5.712;2023-12-20T20:35:38;100825.94;;;17.41;64.52
42105;BME280;70664;51.472;5.712;2023-12-20T20:38:51;100819.84;;;17.42;65.64
42105;BME280;70664;51.472;5.712;2023-12-20T20:41:29;100826.66;;;17.46;65.82
42105;BME280;70664;51.472;5.712;2023-12-20T20:44:46;100823.06;;;17.50;65.95
42105;BME280;70664;51.472;5.712;2023-12-20T20:48:56;100821.16;;;17.57;65.74
42105;BME280;70664;51.472;5.712;2023-12-20T20:59:37;100821.00;;;17.63;64.91
42105;BME280;70664;51.472;5.712;2023-12-20T21:29:55;100786.75;;;17.80;64.48
42105;BME280;70664;51.472;5.712;2023-12-20T21:32:52;100773.72;;;17.81;64.44
42105;BME280;70664;51.472;5.712;2023-12-20T21:38:54;100782.44;;;17.79;64.46
42105;BME280;70664;51.472;5.712;2023-12-20T21:41:35;100776.31;;;17.81;64.48
42105;BME280;70664;51.472;5.712;2023-12-20T21:44:04;100768.63;;;17.77;64.17
42105;BME280;70664;51.472;5.712;2023-12-20T21:46:34;100752.13;;;17.78;64.03
42105;BME280;70664;51.472;5.712;2023-12-20T21:49:44;100748.69;;;17.77;64.03
42105;BME280;70664;51.472;5.712;2023-12-20T21:52:03;100757.31;;;17.79;64.34
42105;BME280;70664;51.472;5.712;2023-12-20T21:54:41;100763.34;;;17.80;64.27
42105;BME280;70664;51.472;5.712;2023-12-20T21:57:12;100765.06;;;17.81;63.92
42105;BME280;70664;51.472;5.712;2023-12-20T21:59:41;100763.19;;;17.86;63.85
42105;BME280;70664;51.472;5.712;2023-12-20T22:02:50;100761.47;;;17.85;64.12
42105;BME280;70664;51.472;5.712;2023-12-20T22:05:34;100751.13;;;17.84;63.77
42105;BME280;70664;51.472;5.712;2023-12-20T22:08:08;100737.97;;;17.88;63.92
42105;BME280;70664;51.472;5.712;2023-12-20T22:10:38;100735.38;;;17.88;63.79
42105;BME280;70664;51.472;5.712;2023-12-20T22:13:04;100731.81;;;17.91;63.89
42105;BME280;70664;51.472;5.712;2023-12-20T22:15:30;100744.72;;;17.95;63.41
42105;BME280;70664;51.472;5.712;2023-12-20T22:18:05;100741.34;;;17.92;63.59
42105;BME280;70664;51.472;5.712;2023-12-20T22:20:31;100746.63;;;17.89;63.77
42105;BME280;70664;51.472;5.712;2023-12-20T22:22:57;100757.84;;;17.91;63.20
42105;BME280;70664;51.472;5.712;2023-12-20T22:25:28;100759.59;;;17.90;63.24
42105;BME280;70664;51.472;5.712;2023-12-20T22:27:54;100742.97;;;17.96;63.48
42105;BME280;70664;51.472;5.712;2023-12-20T22:30:25;100742.97;;;17.96;63.61
42105;BME280;70664;51.472;5.712;2023-12-20T22:33:09;100737.81;;;17.94;63.59
42105;BME280;70664;51.472;5.712;2023-12-20T22:36:20;100725.66;;;17.95;63.31
42105;BME280;70664;51.472;5.712;2023-12-20T22:40:02;100730.84;;;17.95;63.32
42105;BME280;70664;51.472;5.712;2023-12-20T22:42:54;100725.69;;;17.93;63.38
42105;BME280;70664;51.472;5.712;2023-12-20T22:45:32;100721.34;;;17.94;63.19
42105;BME280;70664;51.472;5.712;2023-12-20T22:48:03;100709.22;;;17.93;63.10
42105;BME280;70664;51.472;5.712;2023-12-20T22:50:29;100723.19;;;17.90;63.38
42105;BME280;70664;51.472;5.712;2023-12-20T22:52:55;100708.41;;;17.91;63.08
42105;BME280;70664;51.472;5.712;2023-12-20T22:55:21;100700.75;;;17.86;63.26
42105;BME280;70664;51.472;5.712;2023-12-20T22:57:54;100692.22;;;17.82;63.03
42105;BME280;70664;51.472;5.712;2023-12-20T23:00:20;100694.75;;;17.84;62.95
42105;BME280;70664;51.472;5.712;2023-12-20T23:02:53;100687.94;;;17.80;62.94
42105;BME280;70664;51.472;5.712;2023-12-20T23:05:22;100686.38;;;17.74;63.29
42105;BME280;70664;51.472;5.712;2023-12-20T23:07:51;100684.69;;;17.72;63.43
42105;BME280;70664;51.472;5.712;2023-12-20T23:10:17;100690.00;;;17.69;63.31
42105;BME280;70664;51.472;5.712;2023-12-20T23:12:48;100678.81;;;17.66;63.25
42105;BME280;70664;51.472;5.712;2023-12-20T23:15:15;100689.22;;;17.65;63.55
42105;BME280;70664;51.472;5.712;2023-12-20T23:18:05;100673.78;;;17.60;63.11
42105;BME280;70664;51.472;5.712;2023-12-20T23:20:37;100666.88;;;17.59;63.51
42105;BME280;70664;51.472;5.712;2023-12-20T23:23:04;100661.69;;;17.58;63.25
42105;BME280;70664;51.472;5.712;2023-12-20T23:25:29;100664.28;;;17.59;63.10
42105;BME280;70664;51.472;5.712;2023-12-20T23:27:55;100654.91;;;17.54;63.09
42105;BME280;70664;51.472;5.712;2023-12-20T23:30:21;100668.00;;;17.50;63.60
42105;BME280;70664;51.472;5.712;2023-12-20T23:32:47;100671.34;;;17.54;63.15
42105;BME280;70664;51.472;5.712;2023-12-20T23:35:13;100664.44;;;17.53;63.49
42105;BME280;70664;51.472;5.712;2023-12-20T23:37:39;100656.63;;;17.53;63.33
42105;BME280;70664;51.472;5.712;2023-12-20T23:40:05;100657.69;;;17.47;63.38
42105;BME280;70664;51.472;5.712;2023-12-20T23:42:31;100668.06;;;17.47;63.33
42105;BME280;70664;51.472;5.712;2023-12-20T23:44:57;100655.97;;;17.46;63.63
42105;BME280;70664;51.472;5.712;2023-12-20T23:47:23;100652.47;;;17.47;63.12
42105;BME280;70664;51.472;5.712;2023-12-20T23:49:49;100637.00;;;17.43;63.38
42105;BME280;70664;51.472;5.712;2023-12-20T23:52:18;100631.84;;;17.41;63.58
42105;BME280;70664;51.472;5.712;2023-12-20T23:54:47;100628.34;;;17.42;63.54
42105;BME280;70664;51.472;5.712;2023-12-20T23:57:15;100625.81;;;17.41;63.39
42105;BME280;70664;51.472;5.712;2023-12-20T23:59:46;100612.84;;;17.39;63.23
